Flight Track Log - Related Links

Times and Time Zones

All times are in EDT time to prevent confusion due to time zone crossing. See the N465AS flight status page for this flight to view local times or setup timezone preferences in your user account.

Time Position Orientation Groundspeed Altitude Reporting Facility
EDT Latitude Longitude Course Direction KTS MPH feet Rate Location/Type
Fri 08:48:15 PM 45.6177 -121.2323 60° Northeast  Level FlightAware Approximate
Fri 08:49:17 PM 45.6689 -121.1050 357° North 102 117 5,800  Level Seattle Center
Fri 08:50:18 PM 45.6950 -121.1067 314° West 99 114 6,500 738 Climbing Seattle Center
Fri 08:51:19 PM 45.7097 -121.1286 288° West 92 106 7,300 683 Climbing Seattle Center
Fri 08:52:21 PM 45.7175 -121.1622 268° West 91 105 7,900 732 Climbing Seattle Center
Fri 08:53:22 PM 45.7164 -121.2064 274° West 94 108 8,800 787 Climbing Seattle Center
Fri 08:54:23 PM 45.7186 -121.2472 271° West 103 119 9,500 590 Climbing Seattle Center
Fri 08:55:24 PM 45.7192 -121.2881 272° West 104 120 10,000 295 Climbing Seattle Center
Fri 08:56:25 PM 45.7206 -121.3350 272° West 113 130 10,100 49 Climbing Seattle Center
Fri 08:57:26 PM 45.7222 -121.3908 274° West 131 151 10,100  Level Seattle Center
Fri 08:58:28 PM 45.7247 -121.4461 268° West 139 160 10,100 -49 Level Seattle Center
Fri 08:59:29 PM 45.7236 -121.4942 275° West 128 147 10,000 -98 Descending Seattle Center
Fri 09:00:30 PM 45.7269 -121.5450 276° West 128 147 9,900 -344 Descending Seattle Center
Fri 09:01:31 PM 45.7317 -121.6147 265° West 140 161 9,300 -440 Descending Seattle Center
Fri 09:02:19 PM 45.7289 -121.6603 274° West 144 166 9,100 -333 Descending Seattle Center
Fri 09:03:19 PM 45.7317 -121.7158 270° West 140 161 8,700 -347 Descending Seattle Center
Fri 09:04:20 PM 45.7317 -121.7694 266° West 135 155 8,400 -295 Descending Seattle Center
Fri 09:05:21 PM 45.7292 -121.8211 277° West 133 153 8,100 -197 Descending Seattle Center
Fri 09:06:22 PM 45.7339 -121.8756 272° West 130 150 8,000 -49 Descending Seattle Center
Fri 09:07:23 PM 45.7353 -121.9256 242° Southwest 123 142 8,000 50 Level Seattle Center
Fri 09:08:23 PM 45.7192 -121.9683 240° Southwest 138 159 8,100 50 Climbing Seattle Center
Fri 09:09:24 PM 45.7014 -122.0119 239° Southwest 134 154 8,100 -197 Level Seattle Center
Fri 09:10:25 PM 45.6833 -122.0556 238° Southwest 129 148 7,700 -432 Descending Seattle Center
Fri 09:11:43 PM 45.6597 -122.1089 241° Southwest 134 154 7,100 -331 Descending Seattle Center
Fri 09:12:32 PM 45.6417 -122.1553 240° Southwest 136 157 7,000 -55 Descending Seattle Center
Fri 09:13:33 PM 45.6239 -122.1989 234° Southwest 127 146 7,000  Level Seattle Center
Fri 09:14:33 PM 45.6031 -122.2406 239° Southwest 126 145 7,000  Level Seattle Center
Fri 09:15:34 PM 45.5850 -122.2842 240° Southwest 129 148 7,000  Level Seattle Center
Fri 09:16:34 PM 45.5658 -122.3314 239° Southwest 130 150 7,000  Level Seattle Center
Fri 09:17:35 PM 45.5478 -122.3747 239° Southwest 127 146 7,000  Level Seattle Center
Fri 09:18:36 PM 45.5297 -122.4183 240° Southwest 127 146 7,000 -149 Level Seattle Center
Fri 09:19:36 PM 45.5103 -122.4656 239° Southwest 136 157 6,700 -438 Descending Seattle Center
Fri 09:20:53 PM 45.4869 -122.5208 234° Southwest 143 165 6,000 -541 Descending Seattle Center
Fri 09:21:38 PM 45.4656 -122.5628 240° Southwest 148 170 5,600 -457 Descending Seattle Center
Fri 09:22:38 PM 45.4450 -122.6136 241° Southwest 148 170 5,200 -313 Descending Seattle Center
Fri 09:23:33 PM 45.4289 -122.6558 208° Southwest 138 159 5,000 -103 Descending Seattle Center
Fri 09:24:34 PM 45.3953 -122.6814 199° South 139 160 5,000  Level Seattle Center
Fri 09:25:34 PM 45.3600 -122.6989 215° Southwest 138 159 5,000  Level Seattle Center
Fri 09:26:35 PM 45.3297 -122.7292 314° West 143 165 5,000 -197 Level Seattle Center
Fri 09:27:36 PM 45.3569 -122.7689 330° Northwest 143 165 4,600 -446 Descending Seattle Center
Fri 09:28:36 PM 45.3928 -122.7983 327° Northwest 149 171 4,100 -694 Descending Seattle Center
Fri 09:29:37 PM 45.4264 -122.8289 322° Northwest 146 168 3,200 -942 Descending Seattle Center
Fri 09:30:37 PM 45.4597 -122.8661 319° Northwest 160 184 2,200 -694 Descending Seattle Center
Fri 09:31:38 PM 45.4814 -122.8931 328° Northwest 128 147 1,800 -590 Descending Seattle Center
Fri 09:32:39 PM 45.5039 -122.9133 328° Northwest 108 124 1,000 -787 Descending Seattle Center

Login

Don't have an account? Register now (free) for customized features, flight alerts, and more!